sensor_id;sensor_type;location;lat;lon;timestamp;pressure;altitude;pressure_sealevel;temperature;humidity
26775;BME280;14362;51.902;7.626;2022-09-17T00:02:30;100413.06;;;11.74;100.00
26775;BME280;14362;51.902;7.626;2022-09-17T00:06:34;100411.59;;;11.77;100.00
26775;BME280;14362;51.902;7.626;2022-09-17T00:10:38;100414.72;;;11.75;100.00
26775;BME280;14362;51.902;7.626;2022-09-17T00:14:42;100416.09;;;11.69;100.00
26775;BME280;14362;51.902;7.626;2022-09-17T00:18:43;100417.09;;;11.65;100.00
26775;BME280;14362;51.902;7.626;2022-09-17T00:22:44;100417.91;;;11.65;100.00
26775;BME280;14362;51.902;7.626;2022-09-17T00:26:46;100422.00;;;11.68;100.00
26775;BME280;14362;51.902;7.626;2022-09-17T00:30:49;100421.81;;;11.73;100.00
26775;BME280;14362;51.902;7.626;2022-09-17T00:34:50;100426.28;;;11.65;100.00
26775;BME280;14362;51.902;7.626;2022-09-17T00:38:54;100426.47;;;11.60;100.00
26775;BME280;14362;51.902;7.626;2022-09-17T00:42:55;100430.91;;;11.61;100.00
26775;BME280;14362;51.902;7.626;2022-09-17T00:46:58;100431.78;;;11.53;100.00
26775;BME280;14362;51.902;7.626;2022-09-17T00:51:00;100432.59;;;11.54;100.00
26775;BME280;14362;51.902;7.626;2022-09-17T00:55:08;100442.53;;;11.34;100.00
26775;BME280;14362;51.902;7.626;2022-09-17T00:59:13;100436.84;;;11.51;100.00
26775;BME280;14362;51.902;7.626;2022-09-17T01:03:17;100447.88;;;11.48;100.00
26775;BME280;14362;51.902;7.626;2022-09-17T01:07:43;100436.72;;;11.48;100.00
26775;BME280;14362;51.902;7.626;2022-09-17T01:12:08;100434.31;;;11.38;100.00
26775;BME280;14362;51.902;7.626;2022-09-17T01:16:18;100439.56;;;11.39;100.00
26775;BME280;14362;51.902;7.626;2022-09-17T01:20:48;100459.44;;;11.38;100.00
26775;BME280;14362;51.902;7.626;2022-09-17T01:25:17;100451.09;;;11.29;100.00
26775;BME280;14362;51.902;7.626;2022-09-17T01:29:33;100442.25;;;11.27;100.00
26775;BME280;14362;51.902;7.626;2022-09-17T01:33:47;100450.28;;;11.29;100.00
26775;BME280;14362;51.902;7.626;2022-09-17T01:37:58;100448.81;;;11.23;100.00
26775;BME280;14362;51.902;7.626;2022-09-17T01:42:08;100457.41;;;11.18;100.00
26775;BME280;14362;51.902;7.626;2022-09-17T01:46:14;100453.28;;;11.16;100.00
26775;BME280;14362;51.902;7.626;2022-09-17T01:50:23;100453.50;;;11.11;100.00
26775;BME280;14362;51.902;7.626;2022-09-17T01:54:29;100459.38;;;11.09;100.00
26775;BME280;14362;51.902;7.626;2022-09-17T01:58:35;100455.34;;;10.98;100.00
26775;BME280;14362;51.902;7.626;2022-09-17T02:02:43;100467.78;;;11.01;100.00
26775;BME280;14362;51.902;7.626;2022-09-17T02:06:52;100461.09;;;10.93;100.00
26775;BME280;14362;51.902;7.626;2022-09-17T02:11:01;100459.81;;;10.91;100.00
26775;BME280;14362;51.902;7.626;2022-09-17T02:15:06;100469.81;;;10.92;100.00
26775;BME280;14362;51.902;7.626;2022-09-17T02:19:14;100462.91;;;10.89;100.00
26775;BME280;14362;51.902;7.626;2022-09-17T02:23:24;100464.41;;;10.87;100.00
26775;BME280;14362;51.902;7.626;2022-09-17T02:27:36;100461.78;;;10.82;100.00
26775;BME280;14362;51.902;7.626;2022-09-17T02:31:37;100468.00;;;10.79;100.00
26775;BME280;14362;51.902;7.626;2022-09-17T02:35:42;100467.53;;;10.77;100.00
26775;BME280;14362;51.902;7.626;2022-09-17T02:39:47;100462.28;;;10.84;100.00
26775;BME280;14362;51.902;7.626;2022-09-17T02:43:54;100469.84;;;10.75;100.00
26775;BME280;14362;51.902;7.626;2022-09-17T02:48:17;100469.50;;;10.76;100.00
26775;BME280;14362;51.902;7.626;2022-09-17T02:52:33;100475.44;;;10.75;100.00
26775;BME280;14362;51.902;7.626;2022-09-17T02:56:46;100474.25;;;10.76;100.00
26775;BME280;14362;51.902;7.626;2022-09-17T03:00:51;100473.31;;;10.72;100.00
26775;BME280;14362;51.902;7.626;2022-09-17T03:04:55;100479.53;;;10.69;100.00
26775;BME280;14362;51.902;7.626;2022-09-17T03:08:56;100479.53;;;10.69;100.00
26775;BME280;14362;51.902;7.626;2022-09-17T03:12:59;100468.38;;;10.69;100.00
26775;BME280;14362;51.902;7.626;2022-09-17T03:17:01;100476.75;;;10.69;100.00
26775;BME280;14362;51.902;7.626;2022-09-17T03:21:03;100482.47;;;10.64;100.00
26775;BME280;14362;51.902;7.626;2022-09-17T03:25:05;100493.63;;;10.64;100.00
26775;BME280;14362;51.902;7.626;2022-09-17T03:29:07;100480.19;;;10.66;100.00
26775;BME280;14362;51.902;7.626;2022-09-17T03:33:09;100480.84;;;10.63;100.00
26775;BME280;14362;51.902;7.626;2022-09-17T03:37:11;100482.66;;;10.59;100.00
26775;BME280;14362;51.902;7.626;2022-09-17T03:41:12;100487.06;;;10.60;100.00
26775;BME280;14362;51.902;7.626;2022-09-17T03:45:15;100481.84;;;10.50;100.00
26775;BME280;14362;51.902;7.626;2022-09-17T03:49:16;100488.59;;;10.49;100.00
26775;BME280;14362;51.902;7.626;2022-09-17T03:53:18;100493.50;;;10.43;100.00
26775;BME280;14362;51.902;7.626;2022-09-17T03:57:19;100491.03;;;10.42;100.00
26775;BME280;14362;51.902;7.626;2022-09-17T04:01:23;100494.97;;;10.41;100.00
26775;BME280;14362;51.902;7.626;2022-09-17T04:05:24;100501.38;;;10.33;100.00
26775;BME280;14362;51.902;7.626;2022-09-17T04:09:26;100485.66;;;10.37;100.00
26775;BME280;14362;51.902;7.626;2022-09-17T04:13:27;100502.69;;;10.35;100.00
26775;BME280;14362;51.902;7.626;2022-09-17T04:17:30;100505.31;;;10.32;100.00
26775;BME280;14362;51.902;7.626;2022-09-17T04:21:31;100511.19;;;10.30;100.00
26775;BME280;14362;51.902;7.626;2022-09-17T04:25:33;100511.19;;;10.30;100.00
26775;BME280;14362;51.902;7.626;2022-09-17T04:29:34;100515.81;;;10.26;100.00
26775;BME280;14362;51.902;7.626;2022-09-17T04:33:37;100517.25;;;10.32;100.00
26775;BME280;14362;51.902;7.626;2022-09-17T04:37:38;100517.09;;;10.29;100.00
26775;BME280;14362;51.902;7.626;2022-09-17T04:41:40;100525.97;;;10.22;100.00
26775;BME280;14362;51.902;7.626;2022-09-17T04:45:44;100523.00;;;10.27;100.00
26775;BME280;14362;51.902;7.626;2022-09-17T04:49:47;100520.03;;;10.32;100.00
26775;BME280;14362;51.902;7.626;2022-09-17T04:53:48;100513.81;;;10.27;100.00
26775;BME280;14362;51.902;7.626;2022-09-17T04:57:51;100521.84;;;10.28;100.00
26775;BME280;14362;51.902;7.626;2022-09-17T05:01:53;100516.59;;;10.18;100.00
26775;BME280;14362;51.902;7.626;2022-09-17T05:05:56;100522.84;;;10.24;100.00
26775;BME280;14362;51.902;7.626;2022-09-17T05:09:57;100526.59;;;10.28;100.00
26775;BME280;14362;51.902;7.626;2022-09-17T05:13:58;100522.19;;;10.27;100.00
26775;BME280;14362;51.902;7.626;2022-09-17T05:18:00;100524.63;;;10.28;100.00
26775;BME280;14362;51.902;7.626;2022-09-17T05:22:03;100536.09;;;10.27;100.00
26775;BME280;14362;51.902;7.626;2022-09-17T05:26:04;100542.19;;;10.20;100.00
26775;BME280;14362;51.902;7.626;2022-09-17T05:30:07;100537.75;;;10.19;100.00
26775;BME280;14362;51.902;7.626;2022-09-17T05:34:09;100556.09;;;10.20;100.00
26775;BME280;14362;51.902;7.626;2022-09-17T05:38:12;100554.13;;;10.29;100.00
26775;BME280;14362;51.902;7.626;2022-09-17T05:42:13;100551.03;;;10.31;100.00
26775;BME280;14362;51.902;7.626;2022-09-17T05:46:14;100551.03;;;10.39;100.00
26775;BME280;14362;51.902;7.626;2022-09-17T05:50:16;100552.19;;;10.38;100.00
26775;BME280;14362;51.902;7.626;2022-09-17T05:54:19;100564.47;;;10.46;100.00
26775;BME280;14362;51.902;7.626;2022-09-17T05:58:21;100554.81;;;10.52;100.00
26775;BME280;14362;51.902;7.626;2022-09-17T06:02:22;100566.94;;;10.56;100.00
26775;BME280;14362;51.902;7.626;2022-09-17T06:06:24;100570.69;;;10.51;100.00
26775;BME280;14362;51.902;7.626;2022-09-17T06:10:30;100576.25;;;10.51;100.00
26775;BME280;14362;51.902;7.626;2022-09-17T06:14:31;100585.63;;;10.55;100.00
26775;BME280;14362;51.902;7.626;2022-09-17T06:18:32;100590.03;;;10.56;100.00
26775;BME280;14362;51.902;7.626;2022-09-17T06:22:34;100588.06;;;10.57;100.00
26775;BME280;14362;51.902;7.626;2022-09-17T06:26:37;100583.81;;;10.51;100.00
26775;BME280;14362;51.902;7.626;2022-09-17T06:30:38;100592.97;;;10.51;100.00
26775;BME280;14362;51.902;7.626;2022-09-17T06:34:40;100586.44;;;10.56;100.00
26775;BME280;14362;51.902;7.626;2022-09-17T06:38:41;100591.84;;;10.52;100.00
26775;BME280;14362;51.902;7.626;2022-09-17T06:42:44;100585.59;;;10.72;100.00
26775;BME280;14362;51.902;7.626;2022-09-17T06:46:48;100598.09;;;10.75;100.00
26775;BME280;14362;51.902;7.626;2022-09-17T06:50:50;100590.84;;;10.91;100.00
26775;BME280;14362;51.902;7.626;2022-09-17T06:54:53;100587.22;;;10.99;100.00
26775;BME280;14362;51.902;7.626;2022-09-17T06:58:56;100602.97;;;11.03;100.00
26775;BME280;14362;51.902;7.626;2022-09-17T07:02:59;100591.78;;;11.20;100.00
26775;BME280;14362;51.902;7.626;2022-09-17T07:07:00;100596.16;;;11.38;100.00
26775;BME280;14362;51.902;7.626;2022-09-17T07:11:02;100591.19;;;11.60;100.00
26775;BME280;14362;51.902;7.626;2022-09-17T07:15:06;100595.34;;;11.83;100.00
26775;BME280;14362;51.902;7.626;2022-09-17T07:19:09;100595.63;;;11.90;100.00
26775;BME280;14362;51.902;7.626;2022-09-17T07:23:11;100593.84;;;11.86;100.00
26775;BME280;14362;51.902;7.626;2022-09-17T07:27:12;100603.13;;;12.07;100.00
26775;BME280;14362;51.902;7.626;2022-09-17T07:31:15;100605.00;;;12.23;100.00
26775;BME280;14362;51.902;7.626;2022-09-17T07:35:17;100596.34;;;12.36;100.00
26775;BME280;14362;51.902;7.626;2022-09-17T07:39:18;100602.16;;;12.52;100.00
26775;BME280;14362;51.902;7.626;2022-09-17T07:43:19;100604.75;;;12.57;100.00
26775;BME280;14362;51.902;7.626;2022-09-17T07:47:22;100599.63;;;12.59;100.00
26775;BME280;14362;51.902;7.626;2022-09-17T07:51:25;100600.31;;;12.56;100.00
26775;BME280;14362;51.902;7.626;2022-09-17T07:55:27;100602.16;;;12.72;100.00
26775;BME280;14362;51.902;7.626;2022-09-17T07:59:29;100603.97;;;12.89;100.00
26775;BME280;14362;51.902;7.626;2022-09-17T08:03:32;100605.78;;;12.93;100.00
26775;BME280;14362;51.902;7.626;2022-09-17T08:07:33;100603.03;;;13.05;100.00
26775;BME280;14362;51.902;7.626;2022-09-17T08:11:35;100602.53;;;12.91;100.00
26775;BME280;14362;51.902;7.626;2022-09-17T08:15:36;100600.84;;;13.11;100.00
26775;BME280;14362;51.902;7.626;2022-09-17T08:19:39;100592.47;;;13.23;99.67
26775;BME280;14362;51.902;7.626;2022-09-17T08:23:42;100590.41;;;13.31;100.00
26775;BME280;14362;51.902;7.626;2022-09-17T08:27:43;100583.88;;;13.27;97.45
26775;BME280;14362;51.902;7.626;2022-09-17T08:31:45;100605.13;;;13.40;96.58
26775;BME280;14362;51.902;7.626;2022-09-17T08:35:51;100593.13;;;13.52;94.54
26775;BME280;14362;51.902;7.626;2022-09-17T08:39:52;100594.66;;;13.49;92.57
26775;BME280;14362;51.902;7.626;2022-09-17T08:44:02;100601.31;;;13.57;94.43
26775;BME280;14362;51.902;7.626;2022-09-17T08:48:10;100592.59;;;13.58;89.45
26775;BME280;14362;51.902;7.626;2022-09-17T08:52:34;100591.31;;;13.80;91.63
26775;BME280;14362;51.902;7.626;2022-09-17T08:56:41;100594.00;;;13.88;89.79
26775;BME280;14362;51.902;7.626;2022-09-17T09:00:49;100601.38;;;13.81;87.53
26775;BME280;14362;51.902;7.626;2022-09-17T09:05:02;100594.13;;;13.92;86.23
26775;BME280;14362;51.902;7.626;2022-09-17T09:09:10;100606.38;;;13.99;87.17
26775;BME280;14362;51.902;7.626;2022-09-17T09:13:16;100593.56;;;14.10;83.31
26775;BME280;14362;51.902;7.626;2022-09-17T09:17:21;100598.22;;;14.42;83.59
26775;BME280;14362;51.902;7.626;2022-09-17T09:21:26;100595.75;;;14.52;80.67
26775;BME280;14362;51.902;7.626;2022-09-17T09:25:32;100599.72;;;14.51;80.59
26775;BME280;14362;51.902;7.626;2022-09-17T09:29:41;100597.00;;;14.55;78.66
26775;BME280;14362;51.902;7.626;2022-09-17T09:33:46;100613.16;;;14.46;77.03
26775;BME280;14362;51.902;7.626;2022-09-17T09:37:53;100598.19;;;14.54;78.81
26775;BME280;14362;51.902;7.626;2022-09-17T09:42:03;100599.34;;;14.65;77.74
26775;BME280;14362;51.902;7.626;2022-09-17T09:46:21;100602.22;;;14.80;77.62
26775;BME280;14362;51.902;7.626;2022-09-17T09:50:38;100603.13;;;15.12;77.46
26775;BME280;14362;51.902;7.626;2022-09-17T09:54:54;100596.09;;;15.18;70.57
26775;BME280;14362;51.902;7.626;2022-09-17T09:59:00;100594.09;;;15.30;73.89
26775;BME280;14362;51.902;7.626;2022-09-17T10:03:05;100595.78;;;15.07;75.90
26775;BME280;14362;51.902;7.626;2022-09-17T10:07:10;100594.38;;;15.13;75.08
26775;BME280;14362;51.902;7.626;2022-09-17T10:11:19;100597.97;;;14.86;73.57
26775;BME280;14362;51.902;7.626;2022-09-17T10:15:25;100603.22;;;14.60;77.58
26775;BME280;14362;51.902;7.626;2022-09-17T10:19:27;100608.50;;;14.38;79.65
26775;BME280;14362;51.902;7.626;2022-09-17T10:23:42;100608.50;;;14.38;80.14
26775;BME280;14362;51.902;7.626;2022-09-17T10:27:44;100592.13;;;14.52;82.10
26775;BME280;14362;51.902;7.626;2022-09-17T10:31:50;100598.66;;;14.56;85.88
26775;BME280;14362;51.902;7.626;2022-09-17T10:35:57;100605.00;;;14.05;89.59
26775;BME280;14362;51.902;7.626;2022-09-17T10:40:00;100602.28;;;13.73;98.49
26775;BME280;14362;51.902;7.626;2022-09-17T10:44:16;100593.13;;;13.52;99.25
26775;BME280;14362;51.902;7.626;2022-09-17T10:48:19;100588.16;;;13.69;99.32
26775;BME280;14362;51.902;7.626;2022-09-17T10:52:24;100579.88;;;14.09;92.63
26775;BME280;14362;51.902;7.626;2022-09-17T10:56:28;100571.09;;;14.46;87.79
26775;BME280;14362;51.902;7.626;2022-09-17T11:00:40;100574.56;;;14.94;85.90
26775;BME280;14362;51.902;7.626;2022-09-17T11:04:51;100565.31;;;15.21;69.09
26775;BME280;14362;51.902;7.626;2022-09-17T11:09:05;100560.59;;;15.37;68.02
26775;BME280;14362;51.902;7.626;2022-09-17T11:13:19;100553.22;;;15.33;64.62
26775;BME280;14362;51.902;7.626;2022-09-17T11:21:59;100559.88;;;15.55;65.27
26775;BME280;14362;51.902;7.626;2022-09-17T11:26:06;100560.94;;;15.08;63.19
26775;BME280;14362;51.902;7.626;2022-09-17T11:30:15;100572.41;;;14.76;68.49
26775;BME280;14362;51.902;7.626;2022-09-17T11:34:29;100567.94;;;14.87;69.08
26775;BME280;14362;51.902;7.626;2022-09-17T11:38:38;100561.47;;;15.14;69.56
26775;BME280;14362;51.902;7.626;2022-09-17T11:42:45;100555.16;;;15.17;72.13
26775;BME280;14362;51.902;7.626;2022-09-17T11:46:52;100580.59;;;15.08;71.76
26775;BME280;14362;51.902;7.626;2022-09-17T11:50:58;100567.97;;;15.02;71.12
26775;BME280;14362;51.902;7.626;2022-09-17T11:55:17;100565.84;;;15.11;70.17
26775;BME280;14362;51.902;7.626;2022-09-17T11:59:25;100552.34;;;15.29;70.48
26775;BME280;14362;51.902;7.626;2022-09-17T12:03:32;100555.31;;;15.36;67.44
26775;BME280;14362;51.902;7.626;2022-09-17T12:07:35;100551.53;;;15.59;68.30
26775;BME280;14362;51.902;7.626;2022-09-17T12:11:45;100534.75;;;15.78;66.39
26775;BME280;14362;51.902;7.626;2022-09-17T12:15:56;100540.28;;;15.90;63.18
26775;BME280;14362;51.902;7.626;2022-09-17T12:20:06;100529.84;;;15.90;59.72
26775;BME280;14362;51.902;7.626;2022-09-17T12:24:13;100532.81;;;16.13;58.46
26775;BME280;14362;51.902;7.626;2022-09-17T12:28:20;100526.84;;;15.99;60.78
26775;BME280;14362;51.902;7.626;2022-09-17T12:32:36;100527.28;;;16.01;59.28
26775;BME280;14362;51.902;7.626;2022-09-17T12:36:46;100536.16;;;16.18;57.81
26775;BME280;14362;51.902;7.626;2022-09-17T12:40:56;100567.59;;;15.74;61.66
26775;BME280;14362;51.902;7.626;2022-09-17T12:45:19;100603.22;;;13.77;91.56
26775;BME280;14362;51.902;7.626;2022-09-17T12:49:35;100606.03;;;13.00;100.00
26775;BME280;14362;51.902;7.626;2022-09-17T12:53:52;100567.88;;;12.43;100.00
26775;BME280;14362;51.902;7.626;2022-09-17T12:58:06;100567.25;;;12.58;100.00
26775;BME280;14362;51.902;7.626;2022-09-17T13:02:17;100561.53;;;12.87;100.00
26775;BME280;14362;51.902;7.626;2022-09-17T13:06:41;100561.47;;;13.16;100.00
26775;BME280;14362;51.902;7.626;2022-09-17T13:11:22;100568.19;;;13.47;100.00
26775;BME280;14362;51.902;7.626;2022-09-17T13:15:38;100561.06;;;13.61;100.00
26775;BME280;14362;51.902;7.626;2022-09-17T13:19:49;100556.88;;;14.03;100.00
26775;BME280;14362;51.902;7.626;2022-09-17T13:23:54;100554.09;;;13.91;100.00
26775;BME280;14362;51.902;7.626;2022-09-17T13:28:05;100553.50;;;14.22;100.00
26775;BME280;14362;51.902;7.626;2022-09-17T13:32:07;100549.09;;;14.60;100.00
26775;BME280;14362;51.902;7.626;2022-09-17T13:36:40;100556.00;;;14.50;96.43
26775;BME280;14362;51.902;7.626;2022-09-17T13:40:42;100572.84;;;14.50;94.88
26775;BME280;14362;51.902;7.626;2022-09-17T13:44:47;100606.06;;;14.13;93.19
26775;BME280;14362;51.902;7.626;2022-09-17T13:48:54;100588.03;;;13.22;89.89
26775;BME280;14362;51.902;7.626;2022-09-17T13:53:05;100583.94;;;13.07;95.56
26775;BME280;14362;51.902;7.626;2022-09-17T13:57:10;100560.75;;;12.86;96.38
26775;BME280;14362;51.902;7.626;2022-09-17T14:05:54;100565.75;;;13.13;100.00
26775;BME280;14362;51.902;7.626;2022-09-17T14:09:57;100567.25;;;13.43;100.00
26775;BME280;14362;51.902;7.626;2022-09-17T14:14:40;100569.41;;;13.26;100.00
26775;BME280;14362;51.902;7.626;2022-09-17T14:18:58;100556.28;;;13.06;100.00
26775;BME280;14362;51.902;7.626;2022-09-17T14:23:02;100557.81;;;13.03;100.00
26775;BME280;14362;51.902;7.626;2022-09-17T14:27:10;100573.22;;;13.09;100.00
26775;BME280;14362;51.902;7.626;2022-09-17T14:31:17;100564.06;;;13.00;100.00
26775;BME280;14362;51.902;7.626;2022-09-17T14:35:21;100557.88;;;12.95;100.00
26775;BME280;14362;51.902;7.626;2022-09-17T14:39:27;100550.69;;;13.06;100.00
26775;BME280;14362;51.902;7.626;2022-09-17T14:43:40;100553.56;;;13.29;100.00
26775;BME280;14362;51.902;7.626;2022-09-17T14:47:44;100549.88;;;13.61;100.00
26775;BME280;14362;51.902;7.626;2022-09-17T14:51:45;100546.28;;;13.85;100.00
26775;BME280;14362;51.902;7.626;2022-09-17T14:55:49;100553.38;;;14.06;100.00
26775;BME280;14362;51.902;7.626;2022-09-17T14:59:52;100557.31;;;14.41;100.00
26775;BME280;14362;51.902;7.626;2022-09-17T15:04:09;100577.31;;;14.28;90.87
26775;BME280;14362;51.902;7.626;2022-09-17T15:08:21;100601.13;;;13.98;93.80
26775;BME280;14362;51.902;7.626;2022-09-17T15:12:27;100573.16;;;13.29;100.00
26775;BME280;14362;51.902;7.626;2022-09-17T15:16:29;100559.47;;;13.16;100.00
26775;BME280;14362;51.902;7.626;2022-09-17T15:20:32;100558.94;;;12.90;100.00
26775;BME280;14362;51.902;7.626;2022-09-17T15:24:39;100558.09;;;12.69;100.00
26775;BME280;14362;51.902;7.626;2022-09-17T15:28:43;100563.13;;;12.76;100.00
26775;BME280;14362;51.902;7.626;2022-09-17T15:32:48;100552.50;;;12.69;100.00
26775;BME280;14362;51.902;7.626;2022-09-17T15:37:03;100550.19;;;12.92;100.00
26775;BME280;14362;51.902;7.626;2022-09-17T15:41:24;100560.81;;;12.78;100.00
26775;BME280;14362;51.902;7.626;2022-09-17T15:45:30;100572.34;;;12.76;100.00
26775;BME280;14362;51.902;7.626;2022-09-17T15:49:33;100564.34;;;12.87;100.00
26775;BME280;14362;51.902;7.626;2022-09-17T15:53:35;100553.44;;;12.94;100.00
26775;BME280;14362;51.902;7.626;2022-09-17T15:57:37;100564.91;;;13.01;100.00
26775;BME280;14362;51.902;7.626;2022-09-17T16:01:55;100561.88;;;13.06;100.00
26775;BME280;14362;51.902;7.626;2022-09-17T16:05:57;100572.16;;;13.02;100.00
26775;BME280;14362;51.902;7.626;2022-09-17T16:09:58;100557.22;;;13.10;100.00
26775;BME280;14362;51.902;7.626;2022-09-17T16:14:00;100566.66;;;13.05;99.38
26775;BME280;14362;51.902;7.626;2022-09-17T16:18:03;100567.28;;;13.23;98.62
26775;BME280;14362;51.902;7.626;2022-09-17T16:22:05;100577.69;;;13.22;99.02
26775;BME280;14362;51.902;7.626;2022-09-17T16:26:12;100579.09;;;13.28;98.62
26775;BME280;14362;51.902;7.626;2022-09-17T16:30:16;100579.31;;;13.23;98.31
26775;BME280;14362;51.902;7.626;2022-09-17T16:34:19;100582.31;;;13.18;97.02
26775;BME280;14362;51.902;7.626;2022-09-17T16:38:20;100594.00;;;13.20;97.13
26775;BME280;14362;51.902;7.626;2022-09-17T16:42:21;100587.91;;;13.18;97.56
26775;BME280;14362;51.902;7.626;2022-09-17T16:46:23;100593.13;;;13.08;96.57
26775;BME280;14362;51.902;7.626;2022-09-17T16:50:26;100601.06;;;13.06;96.71
26775;BME280;14362;51.902;7.626;2022-09-17T16:54:27;100599.41;;;13.05;98.62
26775;BME280;14362;51.902;7.626;2022-09-17T16:58:29;100601.28;;;13.01;97.99
26775;BME280;14362;51.902;7.626;2022-09-17T17:02:30;100599.38;;;12.93;98.24
26775;BME280;14362;51.902;7.626;2022-09-17T17:06:33;100610.56;;;12.93;98.65
26775;BME280;14362;51.902;7.626;2022-09-17T17:10:36;100605.13;;;12.88;94.81
26775;BME280;14362;51.902;7.626;2022-09-17T17:14:38;100608.56;;;12.93;92.64
26775;BME280;14362;51.902;7.626;2022-09-17T17:18:40;100618.16;;;12.84;92.31
26775;BME280;14362;51.902;7.626;2022-09-17T17:22:44;100620.84;;;12.80;91.63
26775;BME280;14362;51.902;7.626;2022-09-17T17:26:46;100617.44;;;12.75;90.64
26775;BME280;14362;51.902;7.626;2022-09-17T17:30:48;100626.69;;;12.67;88.69
26775;BME280;14362;51.902;7.626;2022-09-17T17:34:49;100631.38;;;12.63;88.45
26775;BME280;14362;51.902;7.626;2022-09-17T17:38:56;100644.75;;;12.49;89.83
26775;BME280;14362;51.902;7.626;2022-09-17T17:42:57;100644.75;;;12.49;89.36
26775;BME280;14362;51.902;7.626;2022-09-17T17:46:59;100647.47;;;12.37;89.88
26775;BME280;14362;51.902;7.626;2022-09-17T17:51:01;100644.56;;;12.33;89.56
26775;BME280;14362;51.902;7.626;2022-09-17T17:55:05;100644.06;;;12.31;92.15
26775;BME280;14362;51.902;7.626;2022-09-17T17:59:07;100654.28;;;12.27;91.40
26775;BME280;14362;51.902;7.626;2022-09-17T18:03:09;100662.03;;;12.22;90.66
26775;BME280;14362;51.902;7.626;2022-09-17T18:07:10;100654.47;;;12.23;93.03
26775;BME280;14362;51.902;7.626;2022-09-17T18:11:13;100663.25;;;12.13;92.95
26775;BME280;14362;51.902;7.626;2022-09-17T18:15:15;100662.88;;;12.14;91.23
26775;BME280;14362;51.902;7.626;2022-09-17T18:19:16;100666.66;;;12.18;92.85
26775;BME280;14362;51.902;7.626;2022-09-17T18:23:18;100674.19;;;12.18;93.50
26775;BME280;14362;51.902;7.626;2022-09-17T18:27:21;100673.06;;;12.19;94.76
26775;BME280;14362;51.902;7.626;2022-09-17T18:31:24;100683.56;;;12.22;94.44
26775;BME280;14362;51.902;7.626;2022-09-17T18:35:26;100684.03;;;12.23;94.18
26775;BME280;14362;51.902;7.626;2022-09-17T18:39:28;100700.81;;;12.23;93.45
26775;BME280;14362;51.902;7.626;2022-09-17T18:43:32;100694.56;;;12.26;92.48
26775;BME280;14362;51.902;7.626;2022-09-17T18:47:33;100702.81;;;12.23;93.97
26775;BME280;14362;51.902;7.626;2022-09-17T18:51:36;100703.28;;;12.25;94.85
26775;BME280;14362;51.902;7.626;2022-09-17T18:55:37;100704.75;;;12.23;94.92
26775;BME280;14362;51.902;7.626;2022-09-17T18:59:40;100706.53;;;12.27;95.60
26775;BME280;14362;51.902;7.626;2022-09-17T19:03:42;100712.81;;;12.24;95.42
26775;BME280;14362;51.902;7.626;2022-09-17T19:07:44;100713.97;;;12.23;95.98
26775;BME280;14362;51.902;7.626;2022-09-17T19:11:45;100714.03;;;12.15;96.46
26775;BME280;14362;51.902;7.626;2022-09-17T19:15:48;100724.75;;;12.04;96.11
26775;BME280;14362;51.902;7.626;2022-09-17T19:19:49;100723.72;;;12.09;96.92
26775;BME280;14362;51.902;7.626;2022-09-17T19:23:51;100718.31;;;12.04;97.06
26775;BME280;14362;51.902;7.626;2022-09-17T19:27:53;100714.53;;;12.00;97.14
26775;BME280;14362;51.902;7.626;2022-09-17T19:31:56;100723.91;;;12.04;97.73
26775;BME280;14362;51.902;7.626;2022-09-17T19:35:58;100716.00;;;12.06;97.76
26775;BME280;14362;51.902;7.626;2022-09-17T19:40:01;100721.47;;;12.02;98.59
26775;BME280;14362;51.902;7.626;2022-09-17T19:44:02;100716.84;;;12.06;99.15
26775;BME280;14362;51.902;7.626;2022-09-17T19:48:05;100723.88;;;12.12;97.81
26775;BME280;14362;51.902;7.626;2022-09-17T19:52:06;100718.19;;;12.00;99.55
26775;BME280;14362;51.902;7.626;2022-09-17T19:56:10;100715.53;;;12.04;99.98
26775;BME280;14362;51.902;7.626;2022-09-17T20:00:13;100719.81;;;12.01;100.00
26775;BME280;14362;51.902;7.626;2022-09-17T20:04:16;100718.34;;;11.95;100.00
26775;BME280;14362;51.902;7.626;2022-09-17T20:08:18;100725.13;;;11.86;100.00
26775;BME280;14362;51.902;7.626;2022-09-17T20:12:19;100728.56;;;11.83;100.00
26775;BME280;14362;51.902;7.626;2022-09-17T20:16:21;100735.13;;;11.87;100.00
26775;BME280;14362;51.902;7.626;2022-09-17T20:20:23;100738.78;;;11.79;100.00
26775;BME280;14362;51.902;7.626;2022-09-17T20:24:27;100739.25;;;11.81;100.00
26775;BME280;14362;51.902;7.626;2022-09-17T20:28:29;100739.25;;;11.81;100.00
26775;BME280;14362;51.902;7.626;2022-09-17T20:32:30;100752.75;;;11.79;100.00
26775;BME280;14362;51.902;7.626;2022-09-17T20:36:33;100755.53;;;11.70;100.00
26775;BME280;14362;51.902;7.626;2022-09-17T20:40:35;100751.09;;;11.78;100.00
26775;BME280;14362;51.902;7.626;2022-09-17T20:44:36;100759.50;;;11.78;100.00
26775;BME280;14362;51.902;7.626;2022-09-17T20:48:39;100755.53;;;11.79;100.00
26775;BME280;14362;51.902;7.626;2022-09-17T20:52:42;100748.97;;;11.83;100.00
26775;BME280;14362;51.902;7.626;2022-09-17T20:56:43;100748.13;;;11.83;100.00
26775;BME280;14362;51.902;7.626;2022-09-17T21:00:45;100750.09;;;11.82;100.00
26775;BME280;14362;51.902;7.626;2022-09-17T21:04:47;100742.19;;;11.93;100.00
26775;BME280;14362;51.902;7.626;2022-09-17T21:08:52;100746.13;;;11.92;100.00
26775;BME280;14362;51.902;7.626;2022-09-17T21:12:54;100739.41;;;11.93;100.00
26775;BME280;14362;51.902;7.626;2022-09-17T21:16:55;100748.78;;;11.88;100.00
26775;BME280;14362;51.902;7.626;2022-09-17T21:20:59;100743.69;;;11.82;100.00